CYMH

Mary's Harbour Airport

Mary's Harbour, Canada
METAR CYMH 181400Z AUTO 04005KT 9SM CLR 16/10 A2985 RMK SLP109 DENSITY ALT 200FT
Observed Flight Rules
Aug-18 @ 14:00 UTC (52 minutes ago) Visual Flight Rules
Wind Visibility Clouds
40° at 5 knots 9 miles
  • Clear skies
Temperatures Readings
Current 16°C / 61°F
Dewpoint 10°C / 50°F
Humidity 68%
Altimeter 29.85" Hg
Pressure 1010.9 hPa
Elevation 11
METAR CYMH 181400Z AUTO 04005KT 9SM CLR 16/10 A2985 RMK SLP109 DENSITY ALT 200FT
Observed Flight Rules
Aug-18 @ 14:00 UTC
(52 minutes ago)
VFR
Wind Visibility
40° at 5 knots 9 miles
Clouds
  • Clear skies
Temperature Dewpoint
16°C / 61°F 10°C / 50°F
Humidity Altimeter Pressure
68% 29.85" Hg 1010.9 hPa